Time;durP1;ratioP1;P1;durP2;ratioP2;P2;SDS_P1;SDS_P2;PMS_P1;PMS_P2;Temp;Humidity;BMP_temperature;BMP_pressure;BME280_temperature;BME280_humidity;BME280_pressure;Samples;Min_cycle;Max_cycle;Signal;HPM_P1;HPM_P2
2024/01/21 00:01:33;;;;;;;;;;;;;;;-2.13;71.03;102493.38;4178850;28;20023;-69
2024/01/21 00:03:34;;;;;;;;;;;;;;;-2.20;70.87;102479.47;4178521;28;20028;-69
2024/01/21 00:05:36;;;;;;;;;;;;;;;-2.17;70.87;102489.94;4194139;28;20347;-69
2024/01/21 00:07:38;;;;;;;;;;;;;;;-2.18;70.92;102485.59;4195251;28;20380;-69
2024/01/21 00:09:41;;;;;;;;;;;;;;;-2.17;71.09;102482.00;4195148;28;20401;-69
2024/01/21 00:11:43;;;;;;;;;;;;;;;-2.18;70.70;102488.25;4194256;28;20023;-69
2024/01/21 00:13:44;;;;;;;;;;;;;;;-2.21;70.48;102485.69;4195337;28;20007;-69
2024/01/21 00:15:47;;;;;;;;;;;;;;;-2.23;70.42;102481.34;4153382;28;20414;-68
2024/01/21 00:17:49;;;;;;;;;;;;;;;-2.25;70.63;102489.34;4195279;28;20011;-69
2024/01/21 00:19:51;;;;;;;;;;;;;;;-2.28;70.62;102483.31;4195367;28;20365;-69
2024/01/21 00:21:52;;;;;;;;;;;;;;;-2.33;70.47;102486.09;4195076;28;20026;-68
2024/01/21 00:23:54;;;;;;;;;;;;;;;-2.38;70.73;102478.31;4177297;28;20023;-68
2024/01/21 00:25:56;;;;;;;;;;;;;;;-2.39;70.79;102473.91;4195480;28;20722;-69
2024/01/21 00:27:58;;;;;;;;;;;;;;;-2.40;70.63;102473.97;4194794;28;20437;-69
2024/01/21 00:30:00;;;;;;;;;;;;;;;-2.42;70.83;102470.53;4194934;28;20035;-68
2024/01/21 00:32:03;;;;;;;;;;;;;;;-2.45;70.66;102467.97;4194660;28;20376;-68
2024/01/21 00:34:05;;;;;;;;;;;;;;;-2.47;70.62;102470.66;4195031;28;20376;-68
2024/01/21 00:36:08;;;;;;;;;;;;;;;-2.47;70.79;102468.03;4194019;28;20478;-68
2024/01/21 00:38:11;;;;;;;;;;;;;;;-2.47;70.48;102475.97;4194255;28;20039;-68
2024/01/21 00:40:12;;;;;;;;;;;;;;;-2.47;70.54;102477.75;4194775;28;20039;-68
2024/01/21 00:42:14;;;;;;;;;;;;;;;-2.51;70.33;102474.31;4193950;28;20036;-69
2024/01/21 00:44:16;;;;;;;;;;;;;;;-2.53;70.30;102473.50;4193526;28;20015;-70
2024/01/21 00:46:18;;;;;;;;;;;;;;;-2.51;70.16;102465.53;4195248;28;19932;-68
2024/01/21 00:48:21;;;;;;;;;;;;;;;-2.55;70.19;102465.63;4194438;28;20027;-68
2024/01/21 00:50:23;;;;;;;;;;;;;;;-2.58;70.15;102465.72;4194215;28;20003;-68
2024/01/21 00:52:25;;;;;;;;;;;;;;;-2.60;70.33;102470.22;4192071;28;20364;-69
2024/01/21 00:54:27;;;;;;;;;;;;;;;-2.65;70.35;102458.91;4194919;28;20015;-68
2024/01/21 00:56:29;;;;;;;;;;;;;;;-2.68;70.21;102459.00;4195053;28;20019;-68
2024/01/21 00:58:31;;;;;;;;;;;;;;;-2.70;70.38;102458.19;4193981;28;20011;-68
2024/01/21 01:00:33;;;;;;;;;;;;;;;-2.72;70.41;102452.94;4194222;28;20091;-69
2024/01/21 01:02:35;;;;;;;;;;;;;;;-2.75;70.41;102458.31;4194500;28;20027;-68
2024/01/21 01:04:38;;;;;;;;;;;;;;;-2.76;70.35;102456.63;4194118;28;20032;-68
2024/01/21 01:06:40;;;;;;;;;;;;;;;-2.81;70.21;102452.38;4194195;28;20444;-68
2024/01/21 01:08:42;;;;;;;;;;;;;;;-2.82;70.46;102456.81;4195067;28;20024;-69
2024/01/21 01:10:44;;;;;;;;;;;;;;;-2.82;70.28;102456.81;4194024;28;20020;-69
2024/01/21 01:12:46;;;;;;;;;;;;;;;-2.82;70.43;102453.28;4194298;28;20023;-69
2024/01/21 01:14:47;;;;;;;;;;;;;;;-2.84;70.30;102455.09;4194344;28;20871;-69
2024/01/21 01:16:49;;;;;;;;;;;;;;;-2.85;70.48;102453.38;4176907;28;19959;-69
2024/01/21 01:18:51;;;;;;;;;;;;;;;-2.90;70.19;102451.75;4194481;28;20031;-68
2024/01/21 01:20:54;;;;;;;;;;;;;;;-2.93;70.32;102449.19;4194204;28;20019;-68
2024/01/21 01:22:58;;;;;;;;;;;;;;;-2.95;70.25;102451.00;4194327;28;20023;-70
2024/01/21 01:25:00;;;;;;;;;;;;;;;-2.98;70.32;102450.25;4194616;28;20011;-69
2024/01/21 01:27:02;;;;;;;;;;;;;;;-2.97;70.43;102454.63;4194217;28;19960;-71
2024/01/21 01:29:04;;;;;;;;;;;;;;;-3.01;70.28;102443.28;4194430;28;20020;-69
2024/01/21 01:31:06;;;;;;;;;;;;;;;-3.02;70.30;102449.50;4194373;28;20051;-68
2024/01/21 01:33:08;;;;;;;;;;;;;;;-3.03;70.41;102452.19;4194432;28;20023;-69
2024/01/21 01:35:09;;;;;;;;;;;;;;;-3.04;70.33;102446.03;4194776;28;20055;-69
2024/01/21 01:37:13;;;;;;;;;;;;;;;-3.04;70.46;102443.38;4194557;28;20385;-69
2024/01/21 01:39:15;;;;;;;;;;;;;;;-3.05;70.27;102446.94;4194730;28;20580;-69
2024/01/21 01:41:17;;;;;;;;;;;;;;;-3.04;70.16;102446.03;4194231;28;20383;-69
2024/01/21 01:43:19;;;;;;;;;;;;;;;-3.05;70.08;102443.44;4194455;28;20454;-69
2024/01/21 01:45:21;;;;;;;;;;;;;;;-3.08;70.09;102442.59;4194335;28;20031;-71
2024/01/21 01:47:23;;;;;;;;;;;;;;;-3.08;69.90;102444.38;4194383;28;19929;-69
2024/01/21 01:49:25;;;;;;;;;;;;;;;-3.08;69.87;102436.47;4193697;28;20019;-69
2024/01/21 01:51:26;;;;;;;;;;;;;;;-3.08;69.82;102444.38;4193957;28;20047;-68
2024/01/21 01:53:30;;;;;;;;;;;;;;;-3.08;69.71;102436.47;4194942;28;20023;-69
2024/01/21 01:55:32;;;;;;;;;;;;;;;-3.10;69.66;102438.28;4193318;28;20457;-69
2024/01/21 01:57:33;;;;;;;;;;;;;;;-3.09;69.69;102432.97;4193986;28;20027;-69
2024/01/21 01:59:35;;;;;;;;;;;;;;;-3.08;69.63;102428.53;4192169;28;19929;-69
2024/01/21 02:01:36;;;;;;;;;;;;;;;-3.10;69.51;102428.56;4197221;28;20027;-68
2024/01/21 02:03:38;;;;;;;;;;;;;;;-3.09;69.63;102426.78;4196797;28;20039;-69
2024/01/21 02:05:40;;;;;;;;;;;;;;;-3.11;69.47;102418.91;4195386;28;20022;-68
2024/01/21 02:07:42;;;;;;;;;;;;;;;-3.14;69.52;102416.34;4196954;28;19924;-69
2024/01/21 02:09:45;;;;;;;;;;;;;;;-3.14;69.58;102421.63;4196662;28;20023;-70
2024/01/21 02:11:47;;;;;;;;;;;;;;;-3.13;69.58;102412.81;4196195;28;20018;-68
2024/01/21 02:13:50;;;;;;;;;;;;;;;-3.14;69.45;102416.34;4197358;28;20031;-68
2024/01/21 02:15:52;;;;;;;;;;;;;;;-3.13;69.28;102419.88;4197053;28;20568;-68
2024/01/21 02:17:54;;;;;;;;;;;;;;;-3.14;69.27;102420.78;4197140;28;20023;-68
2024/01/21 02:19:56;;;;;;;;;;;;;;;-3.13;69.49;102426.03;4196793;28;20019;-68
2024/01/21 02:21:56;;;;;;;;;;;;;;;-3.11;69.41;102424.19;4196955;28;20350;-68
2024/01/21 02:24:00;;;;;;;;;;;;;;;-3.10;69.56;102423.28;4197513;28;19979;-69
2024/01/21 02:26:02;;;;;;;;;;;;;;;-3.09;69.34;102422.38;4196643;28;20019;-68
2024/01/21 02:28:04;;;;;;;;;;;;;;;-3.05;69.28;102422.28;4170546;28;20478;-69
2024/01/21 02:30:06;;;;;;;;;;;;;;;-3.05;69.18;102417.00;4196385;28;20012;-68
2024/01/21 02:32:08;;;;;;;;;;;;;;;-3.08;68.86;102410.88;4196206;28;20049;-70
2024/01/21 02:34:10;;;;;;;;;;;;;;;-3.08;68.71;102415.31;4197198;28;20037;-69
2024/01/21 02:36:12;;;;;;;;;;;;;;;-3.08;68.73;102405.59;4196709;28;20019;-68
2024/01/21 02:38:14;;;;;;;;;;;;;;;-3.08;68.65;102404.75;4197078;28;20019;-68
2024/01/21 02:40:17;;;;;;;;;;;;;;;-3.06;68.20;102399.41;4196171;28;20020;-69
2024/01/21 02:42:20;;;;;;;;;;;;;;;-3.07;68.36;102390.63;4196506;28;20023;-69
2024/01/21 02:44:22;;;;;;;;;;;;;;;-3.04;68.16;102393.16;4196701;28;20371;-68
2024/01/21 02:46:24;;;;;;;;;;;;;;;-3.03;68.09;102388.72;4197064;28;20485;-69
2024/01/21 02:48:26;;;;;;;;;;;;;;;-3.02;68.10;102393.13;4196537;28;19956;-69
2024/01/21 02:50:28;;;;;;;;;;;;;;;-3.01;67.92;102386.91;4196147;28;20026;-68
2024/01/21 02:52:30;;;;;;;;;;;;;;;-3.04;67.72;102387.88;4194972;28;20406;-68
2024/01/21 02:54:32;;;;;;;;;;;;;;;-3.04;67.72;102394.91;4196198;28;20361;-69
2024/01/21 02:56:35;;;;;;;;;;;;;;;-3.02;67.86;102393.13;4196907;28;20035;-69
2024/01/21 02:58:38;;;;;;;;;;;;;;;-3.04;67.60;102390.53;4196486;28;20018;-69
2024/01/21 03:00:40;;;;;;;;;;;;;;;-3.08;67.37;102379.16;4196320;28;20374;-68
2024/01/21 03:02:42;;;;;;;;;;;;;;;-3.09;67.54;102388.03;4196648;28;20011;-68
2024/01/21 03:04:44;;;;;;;;;;;;;;;-3.10;67.61;102382.78;4196523;28;20027;-68
2024/01/21 03:06:46;;;;;;;;;;;;;;;-3.11;67.79;102384.53;4196203;28;20012;-69
2024/01/21 03:08:48;;;;;;;;;;;;;;;-3.11;67.67;102386.31;4177205;28;19996;-69
2024/01/21 03:10:51;;;;;;;;;;;;;;;-3.14;67.37;102387.28;4195076;28;20019;-69
2024/01/21 03:12:54;;;;;;;;;;;;;;;-3.14;67.36;102387.28;4194640;28;20023;-68
2024/01/21 03:14:55;;;;;;;;;;;;;;;-3.13;67.33;102390.81;4196489;28;20026;-68
2024/01/21 03:16:58;;;;;;;;;;;;;;;-3.14;67.25;102391.72;4178102;28;20019;-68
2024/01/21 03:19:00;;;;;;;;;;;;;;;-3.13;67.25;102393.44;4178418;28;20032;-68
2024/01/21 03:21:02;;;;;;;;;;;;;;;-3.14;67.22;102397.00;4195594;28;20471;-68
2024/01/21 03:23:04;;;;;;;;;;;;;;;-3.14;67.00;102386.41;4195520;28;20015;-70
2024/01/21 03:25:07;;;;;;;;;;;;;;;-3.15;66.91;102393.50;4195082;28;20023;-69
2024/01/21 03:27:09;;;;;;;;;;;;;;;-3.13;66.84;102388.16;4196539;28;19925;-68
2024/01/21 03:29:12;;;;;;;;;;;;;;;-3.14;66.79;102400.50;4196065;28;19925;-68
2024/01/21 03:31:14;;;;;;;;;;;;;;;-3.13;66.59;102394.31;4195350;28;20402;-67
2024/01/21 03:33:16;;;;;;;;;;;;;;;-3.14;66.33;102389.91;4196634;28;20011;-67
2024/01/21 03:35:18;;;;;;;;;;;;;;;-3.13;66.24;102386.38;4195846;28;20015;-67
2024/01/21 03:37:20;;;;;;;;;;;;;;;-3.13;66.02;102391.66;4195868;28;20359;-68
2024/01/21 03:39:22;;;;;;;;;;;;;;;-3.13;65.78;102390.81;4195787;28;20043;-69
2024/01/21 03:41:23;;;;;;;;;;;;;;;-3.16;65.68;102390.91;4195267;28;20020;-68
2024/01/21 03:43:24;;;;;;;;;;;;;;;-3.16;65.54;102399.69;4195153;28;20035;-69
2024/01/21 03:45:28;;;;;;;;;;;;;;;-3.17;65.61;102397.94;4195514;28;20017;-68
2024/01/21 03:47:30;;;;;;;;;;;;;;;-3.16;65.88;102398.84;4196091;28;20034;-68
2024/01/21 03:49:32;;;;;;;;;;;;;;;-3.14;65.74;102411.06;4195653;28;19924;-69
2024/01/21 03:51:34;;;;;;;;;;;;;;;-3.14;65.52;102413.72;4195324;28;20023;-68
2024/01/21 03:53:36;;;;;;;;;;;;;;;-3.14;65.39;102412.84;4196193;28;20043;-68
2024/01/21 03:55:39;;;;;;;;;;;;;;;-3.15;65.46;102406.72;4195772;28;20023;-68
2024/01/21 03:57:41;;;;;;;;;;;;;;;-3.15;65.29;102408.47;4194343;28;20354;-68
2024/01/21 03:59:43;;;;;;;;;;;;;;;-3.15;65.45;102403.19;4194880;28;20015;-68
2024/01/21 04:01:46;;;;;;;;;;;;;;;-3.15;65.39;102398.78;4178002;28;20023;-68
2024/01/21 04:03:48;;;;;;;;;;;;;;;-3.17;65.47;102390.00;4195835;28;20019;-68
2024/01/21 04:05:50;;;;;;;;;;;;;;;-3.19;65.39;102393.63;4195490;28;20042;-69
2024/01/21 04:07:52;;;;;;;;;;;;;;;-3.19;65.25;102401.56;4195101;28;20007;-69
2024/01/21 04:09:56;;;;;;;;;;;;;;;-3.20;65.17;102392.75;4194766;28;21408;-70
2024/01/21 04:11:58;;;;;;;;;;;;;;;-3.21;65.06;102387.50;4169916;28;20023;-70
2024/01/21 04:14:00;;;;;;;;;;;;;;;-3.22;64.89;102389.31;4194541;28;20011;-69
2024/01/21 04:16:02;;;;;;;;;;;;;;;-3.23;64.97;102384.06;4195479;28;20745;-69
2024/01/21 04:18:05;;;;;;;;;;;;;;;-3.24;65.12;102379.69;4195964;28;20014;-68
2024/01/21 04:20:08;;;;;;;;;;;;;;;-3.24;64.92;102382.31;4195276;28;20363;-70
2024/01/21 04:22:10;;;;;;;;;;;;;;;-3.27;64.74;102373.59;4195623;28;20369;-70
2024/01/21 04:24:12;;;;;;;;;;;;;;;-3.27;64.94;102376.22;4195842;28;20031;-70
2024/01/21 04:26:15;;;;;;;;;;;;;;;-3.26;65.10;102372.69;4195769;28;20039;-70
2024/01/21 04:28:17;;;;;;;;;;;;;;;-3.27;65.08;102363.00;4195773;28;20019;-69
2024/01/21 04:30:19;;;;;;;;;;;;;;;-3.26;65.19;102364.75;4195190;28;19925;-70
2024/01/21 04:32:21;;;;;;;;;;;;;;;-3.25;65.02;102360.31;4194921;28;20019;-69
2024/01/21 04:34:24;;;;;;;;;;;;;;;-3.23;64.88;102362.91;4195343;28;20019;-70
2024/01/21 04:36:26;;;;;;;;;;;;;;;-3.26;64.95;102356.84;4195457;28;20568;-69
2024/01/21 04:38:27;;;;;;;;;;;;;;;-3.24;65.18;102358.53;4195449;28;20020;-69
2024/01/21 04:40:29;;;;;;;;;;;;;;;-3.23;65.03;102357.63;4194607;28;19999;-70
2024/01/21 04:42:31;;;;;;;;;;;;;;;-3.22;65.06;102354.09;4194960;28;20015;-70
2024/01/21 04:44:33;;;;;;;;;;;;;;;-3.21;65.36;102358.44;4195360;28;20083;-69
2024/01/21 04:46:35;;;;;;;;;;;;;;;-3.20;65.17;102346.97;4195416;28;20023;-70
2024/01/21 04:48:38;;;;;;;;;;;;;;;-3.20;65.06;102347.81;4195653;28;20028;-70
2024/01/21 04:50:41;;;;;;;;;;;;;;;-3.17;64.88;102341.59;4195327;28;19935;-70
2024/01/21 04:52:43;;;;;;;;;;;;;;;-3.15;64.65;102345.03;4195691;28;20466;-70
2024/01/21 04:54:44;;;;;;;;;;;;;;;-3.16;64.48;102341.53;4195880;28;20012;-70
2024/01/21 04:56:46;;;;;;;;;;;;;;;-3.14;64.49;102345.00;4196271;28;19928;-70
2024/01/21 04:58:48;;;;;;;;;;;;;;;-3.14;64.47;102338.84;4177779;28;20015;-70
2024/01/21 05:00:50;;;;;;;;;;;;;;;-3.14;64.34;102342.34;4191987;28;20051;-70
2024/01/21 05:02:52;;;;;;;;;;;;;;;-3.11;64.51;102355.47;4194002;28;20361;-70
2024/01/21 05:04:54;;;;;;;;;;;;;;;-3.11;64.39;102346.69;4195706;28;20015;-70
2024/01/21 05:06:58;;;;;;;;;;;;;;;-3.10;64.35;102351.91;4195160;28;20011;-69
2024/01/21 05:08:59;;;;;;;;;;;;;;;-3.09;64.03;102358.06;4167243;28;20365;-69
2024/01/21 05:11:00;;;;;;;;;;;;;;;-3.06;63.95;102360.59;4195105;28;20483;-68
2024/01/21 05:13:03;;;;;;;;;;;;;;;-3.04;63.95;102360.56;4194645;28;20050;-70
2024/01/21 05:15:05;;;;;;;;;;;;;;;-3.03;63.96;102363.16;4195014;28;20434;-70
2024/01/21 05:17:07;;;;;;;;;;;;;;;-3.00;63.65;102363.06;4193897;28;20019;-70
2024/01/21 05:19:09;;;;;;;;;;;;;;;-2.96;63.65;102369.97;4177902;28;20039;-70
2024/01/21 05:21:11;;;;;;;;;;;;;;;-2.97;63.44;102362.09;4194288;28;20028;-70
2024/01/21 05:23:15;;;;;;;;;;;;;;;-2.98;63.57;102355.97;4194958;28;20019;-69
2024/01/21 05:25:17;;;;;;;;;;;;;;;-2.99;63.60;102356.88;4195511;28;20027;-69
2024/01/21 05:27:19;;;;;;;;;;;;;;;-2.99;63.48;102348.06;4196173;28;20023;-69
2024/01/21 05:29:20;;;;;;;;;;;;;;;-2.99;63.68;102353.38;4170033;28;20055;-70
2024/01/21 05:31:27;;;;;;;;;;;;;;;-2.99;64.00;102342.78;4176337;28;20391;-69
2024/01/21 05:33:29;;;;;;;;;;;;;;;-3.02;63.76;102335.81;4195710;28;20024;-70
2024/01/21 05:35:31;;;;;;;;;;;;;;;-3.01;64.00;102336.66;4196732;28;20031;-70
2024/01/21 05:37:32;;;;;;;;;;;;;;;-3.02;64.11;102338.47;4198894;28;20347;-70
2024/01/21 05:39:35;;;;;;;;;;;;;;;-3.02;64.00;102338.47;4198520;28;19935;-70
2024/01/21 05:41:37;;;;;;;;;;;;;;;-3.01;64.13;102342.84;4198138;28;20015;-70
2024/01/21 05:43:39;;;;;;;;;;;;;;;-2.99;64.09;102335.72;4198243;28;20047;-70
2024/01/21 05:45:41;;;;;;;;;;;;;;;-2.99;64.11;102334.84;4198851;28;20031;-68
2024/01/21 05:47:43;;;;;;;;;;;;;;;-2.99;64.07;102341.00;4198659;28;20027;-69
2024/01/21 05:49:45;;;;;;;;;;;;;;;-2.99;63.96;102335.72;4180076;28;20024;-69
2024/01/21 05:51:47;;;;;;;;;;;;;;;-2.97;64.19;102331.22;4197174;28;19929;-70
2024/01/21 05:53:49;;;;;;;;;;;;;;;-2.96;63.90;102326.81;4198526;28;20019;-70
2024/01/21 05:55:53;;;;;;;;;;;;;;;-2.96;64.20;102327.69;4198420;28;20056;-69
2024/01/21 05:57:54;;;;;;;;;;;;;;;-2.94;64.24;102332.91;4197348;28;20511;-70
2024/01/21 05:59:56;;;;;;;;;;;;;;;-2.93;64.28;102342.56;4195935;28;19939;-70
2024/01/21 06:01:57;;;;;;;;;;;;;;;-2.93;64.03;102332.88;4198452;28;20319;-70
2024/01/21 06:03:59;;;;;;;;;;;;;;;-2.92;63.96;102328.44;4198518;28;20007;-70
2024/01/21 06:06:01;;;;;;;;;;;;;;;-2.91;64.12;102324.88;4198845;28;20513;-69
2024/01/21 06:08:04;;;;;;;;;;;;;;;-2.88;64.06;102323.91;4197129;28;20127;-68
2024/01/21 06:10:06;;;;;;;;;;;;;;;-2.88;63.97;102318.63;4197194;28;20027;-69
2024/01/21 06:12:10;;;;;;;;;;;;;;;-2.88;64.12;102310.69;4196877;28;19924;-70
2024/01/21 06:14:12;;;;;;;;;;;;;;;-2.88;63.68;102311.56;4197474;28;20376;-69
2024/01/21 06:16:16;;;;;;;;;;;;;;;-2.88;63.59;102305.41;4197386;28;20028;-69
2024/01/21 06:18:18;;;;;;;;;;;;;;;-2.88;63.64;102306.28;4197780;28;20376;-69
2024/01/21 06:20:20;;;;;;;;;;;;;;;-2.87;64.01;102299.19;4197017;28;20022;-69
2024/01/21 06:22:22;;;;;;;;;;;;;;;-2.87;63.93;102305.34;4197316;28;20035;-69
2024/01/21 06:24:24;;;;;;;;;;;;;;;-2.85;64.07;102298.25;4197742;28;20031;-69
2024/01/21 06:26:26;;;;;;;;;;;;;;;-2.85;64.13;102302.66;4179903;28;20502;-68
2024/01/21 06:28:30;;;;;;;;;;;;;;;-2.85;64.43;102298.25;4197273;28;20362;-69
2024/01/21 06:30:32;;;;;;;;;;;;;;;-2.82;64.41;102297.25;4195241;28;20024;-68
2024/01/21 06:32:33;;;;;;;;;;;;;;;-2.83;64.46;102295.56;4196443;28;19925;-69
2024/01/21 06:34:34;;;;;;;;;;;;;;;-2.84;64.12;102299.09;4197392;28;19982;-68
2024/01/21 06:36:37;;;;;;;;;;;;;;;-2.85;64.43;102298.25;4196877;28;20028;-68
2024/01/21 06:38:38;;;;;;;;;;;;;;;-2.83;64.50;102299.03;4194003;28;20506;-69
2024/01/21 06:40:40;;;;;;;;;;;;;;;-2.90;64.54;102290.47;4196507;28;20003;-68
2024/01/21 06:42:41;;;;;;;;;;;;;;;-2.82;64.49;102289.31;4195495;28;19984;-68
2024/01/21 06:44:45;;;;;;;;;;;;;;;-2.80;64.79;102295.44;4196124;28;20023;-69
2024/01/21 06:46:47;;;;;;;;;;;;;;;-2.83;64.63;102293.75;4195955;28;19978;-68
2024/01/21 06:48:49;;;;;;;;;;;;;;;-2.84;64.44;102294.66;4173116;28;19964;-68
2024/01/21 06:50:52;;;;;;;;;;;;;;;-2.84;64.26;102299.09;4197130;28;20019;-68
2024/01/21 06:52:54;;;;;;;;;;;;;;;-2.84;64.45;102301.75;4177628;28;20334;-69
2024/01/21 06:54:56;;;;;;;;;;;;;;;-2.85;64.59;102290.31;4196516;28;20500;-68
2024/01/21 06:56:58;;;;;;;;;;;;;;;-2.84;64.63;102283.22;4194921;28;20037;-68
2024/01/21 06:59:00;;;;;;;;;;;;;;;-2.84;64.61;102292.00;4171547;28;20025;-69
2024/01/21 07:01:03;;;;;;;;;;;;;;;-2.83;64.81;102287.63;4195993;28;20023;-68
2024/01/21 07:03:05;;;;;;;;;;;;;;;-2.83;64.76;102298.19;4171368;28;20017;-68
2024/01/21 07:05:08;;;;;;;;;;;;;;;-2.82;64.90;102297.25;4196821;28;20576;-68
2024/01/21 07:07:10;;;;;;;;;;;;;;;-2.83;64.68;102306.13;4196727;28;20026;-68
2024/01/21 07:09:12;;;;;;;;;;;;;;;-2.84;64.61;102302.59;4197645;28;20031;-69
2024/01/21 07:11:14;;;;;;;;;;;;;;;-2.82;64.70;102297.25;4196195;28;20028;-68
2024/01/21 07:13:16;;;;;;;;;;;;;;;-2.83;64.42;102300.84;4196394;28;20363;-68
2024/01/21 07:15:18;;;;;;;;;;;;;;;-2.82;64.57;102294.59;4197031;28;20023;-69
2024/01/21 07:17:22;;;;;;;;;;;;;;;-2.81;64.99;102291.91;4196745;28;20030;-68
2024/01/21 07:19:24;;;;;;;;;;;;;;;-2.79;64.92;102290.09;4195361;28;20039;-68
2024/01/21 07:21:26;;;;;;;;;;;;;;;-2.78;64.94;102283.88;4196657;28;20023;-68
2024/01/21 07:23:28;;;;;;;;;;;;;;;-2.77;65.16;102269.75;4197261;28;20017;-68
2024/01/21 07:25:30;;;;;;;;;;;;;;;-2.77;65.11;102275.03;4196742;28;20023;-68
2024/01/21 07:27:34;;;;;;;;;;;;;;;-2.78;64.90;102267.16;4196321;28;20035;-70
2024/01/21 07:29:36;;;;;;;;;;;;;;;-2.72;64.97;102280.16;4195420;28;20027;-69
2024/01/21 07:31:38;;;;;;;;;;;;;;;-2.77;64.61;102274.19;4195685;28;20027;-69
2024/01/21 07:33:41;;;;;;;;;;;;;;;-2.71;64.63;102273.97;4172903;28;20488;-69
2024/01/21 07:35:45;;;;;;;;;;;;;;;-2.70;64.30;102278.31;4196780;28;19959;-69
2024/01/21 07:37:46;;;;;;;;;;;;;;;-2.69;64.22;102288.00;4195677;28;20019;-69
2024/01/21 07:39:49;;;;;;;;;;;;;;;-2.69;64.05;102295.94;4195923;28;20023;-68
2024/01/21 07:41:50;;;;;;;;;;;;;;;-2.66;64.41;102284.41;4194351;28;20011;-68
2024/01/21 07:43:52;;;;;;;;;;;;;;;-2.65;64.47;102279.06;4197067;28;19931;-69
2024/01/21 07:45:54;;;;;;;;;;;;;;;-2.63;64.29;102279.84;4195613;28;20398;-69
2024/01/21 07:47:56;;;;;;;;;;;;;;;-2.61;64.20;102261.28;4195783;28;20583;-69
2024/01/21 07:49:59;;;;;;;;;;;;;;;-2.58;64.27;102255.88;4194388;28;20455;-70
2024/01/21 07:52:01;;;;;;;;;;;;;;;-2.58;63.96;102274.41;4196170;28;20384;-68
2024/01/21 07:54:04;;;;;;;;;;;;;;;-2.59;63.70;102275.31;4195030;28;19935;-69
2024/01/21 07:56:06;;;;;;;;;;;;;;;-2.59;63.69;102281.44;4192831;28;20024;-70
2024/01/21 07:58:08;;;;;;;;;;;;;;;-2.57;63.32;102270.81;4195438;28;20039;-69
2024/01/21 08:00:10;;;;;;;;;;;;;;;-2.55;63.69;102255.78;4194046;28;20023;-69
2024/01/21 08:02:12;;;;;;;;;;;;;;;-2.52;64.28;102247.72;4195542;28;20421;-69
2024/01/21 08:04:14;;;;;;;;;;;;;;;-2.49;64.08;102246.72;4196429;28;20015;-69
2024/01/21 08:06:18;;;;;;;;;;;;;;;-2.49;63.43;102257.31;4196908;28;20028;-70
2024/01/21 08:08:20;;;;;;;;;;;;;;;-2.47;63.49;102261.66;4196029;28;20020;-69
2024/01/21 08:10:21;;;;;;;;;;;;;;;-2.46;63.36;102260.75;4196255;28;20363;-69
2024/01/21 08:12:23;;;;;;;;;;;;;;;-2.46;63.00;102266.03;4196053;28;19928;-69
2024/01/21 08:14:25;;;;;;;;;;;;;;;-2.45;62.75;102257.16;4195986;28;20390;-69
2024/01/21 08:16:28;;;;;;;;;;;;;;;-2.44;62.97;102250.94;4195717;28;20027;-68
2024/01/21 08:18:30;;;;;;;;;;;;;;;-2.41;63.22;102239.41;4197159;28;20023;-68
2024/01/21 08:20:32;;;;;;;;;;;;;;;-2.38;63.53;102234.84;4195514;28;20015;-68
2024/01/21 08:22:35;;;;;;;;;;;;;;;-2.36;63.59;102233.00;4194664;28;20011;-70
2024/01/21 08:24:37;;;;;;;;;;;;;;;-2.36;62.97;102229.50;4195646;28;20039;-69
2024/01/21 08:26:39;;;;;;;;;;;;;;;-2.33;62.89;102236.47;4196124;28;20593;-69
2024/01/21 08:28:41;;;;;;;;;;;;;;;-2.30;62.71;102231.94;4195670;28;20019;-70
2024/01/21 08:30:43;;;;;;;;;;;;;;;-2.30;62.23;102220.47;4194892;28;20015;-70
2024/01/21 08:32:44;;;;;;;;;;;;;;;-2.28;62.35;102216.00;4195096;28;20031;-70
2024/01/21 08:34:46;;;;;;;;;;;;;;;-2.26;62.36;102222.06;4194962;28;19928;-70
2024/01/21 08:36:48;;;;;;;;;;;;;;;-2.25;62.26;102219.38;4195605;28;20012;-70
2024/01/21 08:38:52;;;;;;;;;;;;;;;-2.22;62.21;102207.81;4195385;28;20019;-69
2024/01/21 08:40:54;;;;;;;;;;;;;;;-2.20;61.72;102208.63;4195407;28;20027;-70
2024/01/21 08:42:57;;;;;;;;;;;;;;;-2.18;61.89;102202.34;4194921;28;20023;-70
2024/01/21 08:44:59;;;;;;;;;;;;;;;-2.15;61.66;102208.44;4195267;28;19932;-70
2024/01/21 08:47:02;;;;;;;;;;;;;;;-2.13;61.45;102214.53;4195478;28;20011;-70
2024/01/21 08:49:04;;;;;;;;;;;;;;;-2.12;60.96;102217.13;4194718;28;20446;-70
2024/01/21 08:53:56;;;;;;;;;;;;;;;-2.09;61.14;102195.81;4186266;28;19931;-85
2024/01/21 08:56:17;;;;;;;;;;;;;;;-2.02;61.50;102207.91;4177820;28;19963;-85
2024/01/21 08:58:38;;;;;;;;;;;;;;;-1.98;61.21;102206.00;4177476;28;19932;-84
2024/01/21 09:00:59;;;;;;;;;;;;;;;-1.94;61.05;102209.38;4178734;28;20475;-86
2024/01/21 09:03:22;;;;;;;;;;;;;;;-1.91;60.64;102210.16;4179785;28;19931;-86
2024/01/21 09:05:43;;;;;;;;;;;;;;;-1.87;60.44;102216.16;4179769;28;19932;-87
2024/01/21 09:08:05;;;;;;;;;;;;;;;-1.84;60.64;102216.06;4185855;28;19990;-86
2024/01/21 09:10:27;;;;;;;;;;;;;;;-1.82;59.97;102207.13;4177785;28;19974;-84
2024/01/21 09:12:47;;;;;;;;;;;;;;;-1.77;60.32;102200.78;4178750;28;20028;-86
2024/01/21 09:15:08;;;;;;;;;;;;;;;-1.74;60.49;102204.19;4178614;28;19963;-88
2024/01/21 09:17:30;;;;;;;;;;;;;;;-1.73;59.57;102211.19;4177532;28;19935;-86
2024/01/21 09:19:54;;;;;;;;;;;;;;;-1.70;59.24;102202.25;4178870;28;19932;-86
2024/01/21 09:22:14;;;;;;;;;;;;;;;-1.67;58.91;102202.16;4178509;28;19931;-85
2024/01/21 09:24:35;;;;;;;;;;;;;;;-1.64;59.68;102200.22;4178475;28;19974;-87
2024/01/21 09:26:57;;;;;;;;;;;;;;;-1.61;59.30;102198.38;4179054;28;20008;-86
2024/01/21 09:29:18;;;;;;;;;;;;;;;-1.58;59.53;102198.25;4178955;28;20007;-86
2024/01/21 09:31:38;;;;;;;;;;;;;;;-1.57;59.26;102192.88;4178119;28;20667;-86
2024/01/21 09:33:59;;;;;;;;;;;;;;;-1.53;59.43;102197.13;4178968;28;20091;-86
2024/01/21 09:36:20;;;;;;;;;;;;;;;-1.52;59.02;102206.81;4178963;28;19940;-86
2024/01/21 09:38:43;;;;;;;;;;;;;;;-1.50;58.43;102214.72;4179656;28;19971;-86
2024/01/21 09:41:06;;;;;;;;;;;;;;;-1.49;58.05;102208.47;4178687;28;19939;-87
2024/01/21 13:51:57;;;;;;;;;;;;;;;0.79;57.39;101800.97;4169681;28;19949;-86
2024/01/21 13:54:18;;;;;;;;;;;;;;;0.80;57.46;101802.66;4170971;28;19981;-87
2024/01/21 13:56:39;;;;;;;;;;;;;;;0.81;57.51;101791.91;4170964;28;19931;-86
2024/01/21 13:59:00;;;;;;;;;;;;;;;0.82;57.34;101783.00;4170981;28;20006;-87
2024/01/21 14:01:20;;;;;;;;;;;;;;;0.82;57.38;101769.72;4173856;28;19971;-85
2024/01/21 14:03:41;;;;;;;;;;;;;;;0.84;57.46;101759.84;4158437;28;19972;-83
2024/01/21 14:06:02;;;;;;;;;;;;;;;0.86;57.16;101776.59;4173355;28;19939;-85
2024/01/21 14:08:23;;;;;;;;;;;;;;;0.85;57.59;101766.88;4173235;28;19939;-87
2024/01/21 14:10:45;;;;;;;;;;;;;;;0.85;57.98;101764.22;4173408;28;19979;-86
2024/01/21 14:13:06;;;;;;;;;;;;;;;0.88;57.62;101755.22;4171695;28;20353;-87
2024/01/21 14:15:26;;;;;;;;;;;;;;;0.89;57.61;101746.28;4173086;28;19932;-87
2024/01/21 14:17:46;;;;;;;;;;;;;;;0.92;57.32;101750.56;4172381;28;19983;-90
2024/01/21 14:20:08;;;;;;;;;;;;;;;0.94;56.80;101743.34;4171937;28;19936;-89
2024/01/21 14:22:29;;;;;;;;;;;;;;;0.97;56.52;101743.16;4172747;28;19939;-87
2024/01/21 14:24:52;;;;;;;;;;;;;;;0.98;56.23;101759.03;4172218;28;19979;-90
2024/01/21 14:27:13;;;;;;;;;;;;;;;1.00;55.70;101757.13;4172207;28;19983;-87
2024/01/21 14:29:36;;;;;;;;;;;;;;;1.04;55.18;101771.13;4171944;28;19936;-86
2024/01/21 14:31:57;;;;;;;;;;;;;;;1.05;55.03;101788.78;4172610;28;19944;-87
2024/01/21 14:34:18;;;;;;;;;;;;;;;1.06;54.65;101769.22;4146028;28;20405;-90
2024/01/21 14:36:40;;;;;;;;;;;;;;;1.06;54.71;101785.19;4158545;28;20024;-91
2024/01/21 14:39:02;;;;;;;;;;;;;;;1.07;54.84;101790.41;4158364;28;20445;-90
2024/01/21 14:41:24;;;;;;;;;;;;;;;1.12;53.96;101805.28;4171547;28;20567;-89
2024/01/21 14:43:45;;;;;;;;;;;;;;;1.14;53.78;101801.56;4171980;28;19947;-89
2024/01/21 14:46:07;;;;;;;;;;;;;;;1.15;53.48;101789.97;4171835;28;20477;-88
2024/01/21 14:48:28;;;;;;;;;;;;;;;1.14;53.41;101808.69;4160900;28;20027;-92
2024/01/21 14:50:49;;;;;;;;;;;;;;;1.17;53.02;101796.06;4189917;28;19935;-89
2024/01/21 14:53:10;;;;;;;;;;;;;;;1.16;53.12;101801.47;4181745;28;19935;-86
2024/01/21 14:55:31;;;;;;;;;;;;;;;1.17;53.49;101788.06;4182553;28;20563;-84